Time;durP1;ratioP1;P1;durP2;ratioP2;P2;SDS_P1;SDS_P2;PMS_P1;PMS_P2;Temp;Humidity;BMP_temperature;BMP_pressure;BME280_temperature;BME280_humidity;BME280_pressure;Samples;Min_cycle;Max_cycle;Signal;HPM_P1;HPM_P2
2021/04/27 00:01:19;;;;;;;22.33;13.73;;;;;;;1.81;65.64;100567.09;1662719;84;25773;-77
2021/04/27 00:03:45;;;;;;;26.27;13.93;;;;;;;1.77;65.70;100571.59;1661571;84;25389;-79
2021/04/27 00:06:11;;;;;;;26.40;13.77;;;;;;;1.76;65.79;100571.25;1661332;84;29146;-77
2021/04/27 00:08:39;;;;;;;23.27;14.37;;;;;;;1.76;65.92;100571.25;1642824;85;25859;-77
2021/04/27 00:11:04;;;;;;;24.77;14.00;;;;;;;1.78;65.98;100568.11;1637959;85;25769;-79
2021/04/27 00:13:30;;;;;;;22.98;13.53;;;;;;;1.73;65.94;100562.44;1635567;85;25774;-79
2021/04/27 00:15:56;;;;;;;28.60;13.87;;;;;;;1.67;65.99;100563.67;1664130;84;25868;-79
2021/04/27 00:18:22;;;;;;;23.50;14.28;;;;;;;1.63;66.08;100563.51;1639788;85;25791;-79
2021/04/27 00:20:48;;;;;;;22.27;13.72;;;;;;;1.56;66.18;100559.71;1635652;85;25305;-79
2021/04/27 00:23:14;;;;;;;28.90;16.53;;;;;;;1.46;66.30;100554.80;1668094;84;25754;-77
2021/04/27 00:25:40;;;;;;;27.60;16.75;;;;;;;1.38;66.66;100558.34;1636748;85;25791;-78
2021/04/27 00:28:06;;;;;;;27.77;16.32;;;;;;;1.31;66.94;100557.94;1663610;84;25762;-79
2021/04/27 00:30:32;;;;;;;28.07;15.98;;;;;;;1.26;67.19;100553.55;1664791;84;25749;-79
2021/04/27 00:32:58;;;;;;;36.27;19.13;;;;;;;1.24;67.38;100551.53;1635568;85;25910;-79
2021/04/27 00:35:25;;;;;;;36.27;18.47;;;;;;;1.21;67.51;100553.02;1664441;84;25765;-79
2021/04/27 00:37:52;;;;;;;30.40;18.30;;;;;;;1.20;67.74;100553.92;1636615;85;25927;-79
2021/04/27 00:40:20;;;;;;;32.75;18.30;;;;;;;1.22;67.85;100561.09;1667748;84;26645;-79
2021/04/27 00:42:47;;;;;;;36.93;17.77;;;;;;;1.25;68.03;100555.27;1667211;84;26581;-79
2021/04/27 00:45:18;;;;;;;32.53;17.07;;;;;;;1.24;68.07;100553.63;1635969;85;25856;-79
2021/04/27 00:47:44;;;;;;;33.42;17.35;;;;;;;1.22;68.17;100552.91;1636630;85;25874;-79
2021/04/27 00:50:15;;;;;;;30.35;17.23;;;;;;;1.21;68.25;100553.02;1638496;85;25921;-79
2021/04/27 00:52:45;;;;;;;34.45;18.35;;;;;;;1.17;68.41;100552.84;1639429;85;25788;-79
2021/04/27 00:55:13;;;;;;;30.32;16.55;;;;;;;1.13;68.51;100548.36;1663763;84;25345;-79
2021/04/27 00:57:39;;;;;;;33.28;17.37;;;;;;;1.12;68.70;100551.88;1640200;85;25811;-78
2021/04/27 01:00:09;;;;;;;34.93;18.90;;;;;;;1.14;68.92;100548.71;1671550;83;25435;-78
2021/04/27 01:02:35;;;;;;;;;;;;;;;1.15;68.99;100545.23;1639620;85;25870;-78
2021/04/27 01:05:04;;;;;;;40.12;18.17;;;;;;;1.16;69.13;100540.44;1663596;84;25784;-78
2021/04/27 01:07:34;;;;;;;42.88;19.50;;;;;;;1.20;69.14;100537.19;1639554;85;25404;-79
2021/04/27 01:10:06;;;;;;;35.13;17.37;;;;;;;1.23;69.16;100539.59;1666244;84;26619;-79
2021/04/27 01:12:36;;;;;;;33.83;17.65;;;;;;;1.25;69.11;100535.14;1640000;85;25859;-79
2021/04/27 01:15:16;;;;;;;38.15;17.90;;;;;;;1.24;69.09;100536.90;1667922;84;26406;-79
2021/04/27 01:17:44;;;;;;;34.35;18.45;;;;;;;1.24;69.20;100536.90;1636510;85;25705;-78
2021/04/27 01:20:21;;;;;;;37.00;18.75;;;;;;;1.22;69.23;100537.92;1625227;85;25842;-78
2021/04/27 01:23:09;;;;;;;33.00;20.52;;;;;;;1.17;69.23;100538.22;1665022;84;25684;-78
2021/04/27 01:26:04;;;;;;;42.70;17.50;;;;;;;1.16;69.43;100535.76;1634800;85;25894;-79
2021/04/27 01:28:33;;;;;;;36.90;19.75;;;;;;;1.11;69.50;100542.48;1626686;86;26931;-79
2021/04/27 01:31:02;;;;;;;40.83;18.07;;;;;;;1.05;69.63;100537.73;1590754;87;25894;-79
2021/04/27 01:33:31;;;;;;;41.98;19.60;;;;;;;1.01;69.73;100543.55;1608990;87;25757;-79
2021/04/27 01:36:00;;;;;;;33.38;18.45;;;;;;;1.00;69.83;100543.17;1631244;86;25831;-79
2021/04/27 01:38:28;;;;;;;33.20;17.87;;;;;;;1.00;69.96;100541.07;1625151;86;25815;-79
2021/04/27 01:40:55;;;;;;;33.80;17.57;;;;;;;0.99;70.07;100547.16;1638407;85;25795;-79
2021/04/27 01:43:23;;;;;;;40.85;18.42;;;;;;;0.98;70.16;100540.34;1626617;86;25428;-80
2021/04/27 01:45:54;;;;;;;34.92;16.50;;;;;;;0.96;70.16;100544.78;1638631;85;25720;-80
2021/04/27 01:48:21;;;;;;;31.75;16.48;;;;;;;0.93;70.36;100544.52;1598944;87;25802;-79
2021/04/27 01:50:47;;;;;;;37.58;17.57;;;;;;;0.89;70.41;100540.00;1609228;87;25812;-79
2021/04/27 01:53:32;;;;;;;39.20;19.05;;;;;;;0.84;70.46;100539.47;1631768;85;27560;-79
2021/04/27 01:55:58;;;;;;;32.48;16.50;;;;;;;0.91;70.46;100544.25;1628578;86;25913;-79
2021/04/27 01:58:24;;;;;;;28.47;15.57;;;;;;;0.92;70.60;100554.89;1637843;86;34941;-79
2021/04/27 02:00:50;;;;;;;29.47;16.40;;;;;;;0.90;70.56;100553.72;1616313;86;25769;-79
2021/04/27 02:03:16;;;;;;;33.98;16.65;;;;;;;0.88;70.61;100547.38;1622229;86;25805;-79
2021/04/27 02:05:57;;;;;;;29.48;16.75;;;;;;;0.89;70.65;100546.91;1625616;86;25741;-79
2021/04/27 02:08:25;;;;;;;25.62;16.50;;;;;;;0.86;70.60;100545.35;1638294;85;25811;-79
2021/04/27 02:10:52;;;;;;;28.23;15.38;;;;;;;0.85;70.73;100553.19;1638498;86;25699;-79
2021/04/27 02:13:19;;;;;;;29.10;15.27;;;;;;;0.80;70.66;100548.79;1625280;86;25902;-79
2021/04/27 02:15:47;;;;;;;24.95;16.15;;;;;;;0.77;70.85;100544.66;1636699;85;25777;-79
2021/04/27 02:18:30;;;;;;;35.20;16.00;;;;;;;0.75;70.93;100549.07;1604086;87;25896;-79
2021/04/27 02:21:00;;;;;;;26.85;14.28;;;;;;;0.73;71.01;100543.19;1609583;87;25823;-80
2021/04/27 02:23:37;;;;;;;26.33;14.90;;;;;;;0.71;71.14;100538.63;1638931;85;25747;-79
2021/04/27 02:26:05;;;;;;;24.82;14.23;;;;;;;0.71;71.28;100541.20;1626743;86;25725;-79
2021/04/27 02:28:34;;;;;;;24.10;15.08;;;;;;;0.70;71.30;100535.67;1600094;87;25926;-79
2021/04/27 02:31:01;;;;;;;23.57;14.03;;;;;;;0.70;71.36;100534.38;1610119;86;25762;-79
2021/04/27 02:33:28;;;;;;;24.10;14.53;;;;;;;0.70;71.39;100531.81;1639233;85;25721;-79
2021/04/27 02:35:55;;;;;;;28.47;15.35;;;;;;;0.70;71.41;100534.38;1626547;86;25757;-79
2021/04/27 02:38:23;;;;;;;29.12;13.88;;;;;;;0.59;71.41;100508.53;1637026;85;25762;-79
2021/04/27 02:40:55;;;;;;;23.22;14.45;;;;;;;0.71;71.37;100527.05;1636477;85;25845;-79
2021/04/27 02:43:23;;;;;;;27.98;14.85;;;;;;;0.63;71.44;100516.42;1625889;86;26038;-79
2021/04/27 02:45:49;;;;;;;24.75;14.70;;;;;;;0.76;71.81;100522.88;1638895;85;25784;-79
2021/04/27 02:48:27;;;;;;;24.00;14.43;;;;;;;0.76;71.81;100522.88;1625469;86;26079;-79
2021/04/27 02:50:59;;;;;;;24.50;14.33;;;;;;;0.61;71.14;100511.36;1635570;85;25429;-79
2021/04/27 02:53:27;;;;;;;28.98;15.58;;;;;;;0.61;71.14;100511.36;1626892;86;25951;-80
2021/04/27 02:55:54;;;;;;;30.68;15.40;;;;;;;0.66;71.39;100523.48;1639145;86;26494;-79
2021/04/27 02:58:21;;;;;;;26.00;16.12;;;;;;;0.69;71.48;100525.50;1607284;86;26250;-79
2021/04/27 03:00:50;;;;;;;28.70;15.68;;;;;;;0.72;71.49;100522.26;1640759;85;25931;-78
2021/04/27 03:03:16;;;;;;;26.17;17.10;;;;;;;0.72;71.29;100531.27;1626656;86;25536;-78
2021/04/27 03:05:43;;;;;;;26.77;15.35;;;;;;;0.62;71.19;100527.62;1638772;85;25796;-78
2021/04/27 03:08:09;;;;;;;24.40;15.20;;;;;;;0.59;71.31;100532.95;1624568;86;25728;-77
2021/04/27 03:10:36;;;;;;;26.95;16.35;;;;;;;0.57;71.38;100534.36;1637667;86;25357;-78
2021/04/27 03:13:02;;;;;;;31.33;15.53;;;;;;;0.53;71.44;100544.45;1625204;86;26082;-78
2021/04/27 03:15:30;;;;;;;25.43;16.75;;;;;;;0.52;71.54;100544.10;1642695;86;25317;-78
2021/04/27 03:17:57;;;;;;;24.43;15.72;;;;;;;0.54;71.74;100542.70;1638479;85;25400;-78
2021/04/27 03:20:24;;;;;;;30.30;16.77;;;;;;;0.52;71.68;100546.67;1625117;86;26038;-78
2021/04/27 03:22:52;;;;;;;29.00;16.77;;;;;;;0.50;71.64;100548.51;1638238;85;25767;-77
2021/04/27 03:25:19;;;;;;;35.48;21.55;;;;;;;0.48;71.76;100535.37;1629676;86;25892;-77
2021/04/27 03:27:47;;;;;;;36.10;19.27;;;;;;;0.50;71.88;100538.22;1637509;85;25339;-77
2021/04/27 03:30:15;;;;;;;34.03;20.17;;;;;;;0.51;71.94;100540.33;1615301;86;25505;-77
2021/04/27 03:32:42;;;;;;;30.85;16.97;;;;;;;0.46;71.78;100543.17;1643746;85;27307;-77
2021/04/27 03:35:12;;;;;;;29.37;17.45;;;;;;;0.37;71.82;100547.15;1626391;86;25832;-78
2021/04/27 03:37:38;;;;;;;27.42;16.32;;;;;;;0.27;71.92;100538.81;1640265;85;26648;-79
2021/04/27 03:40:07;;;;;;;25.45;16.20;;;;;;;0.22;72.18;100531.41;1625234;86;25601;-78
2021/04/27 03:42:33;;;;;;;29.85;17.73;;;;;;;0.25;72.53;100541.50;1638138;86;25388;-79
2021/04/27 03:45:00;;;;;;;28.70;16.15;;;;;;;0.25;72.53;100541.50;1585196;88;26210;-78
2021/04/27 03:47:26;;;;;;;28.23;17.12;;;;;;;0.21;72.56;100543.88;1600577;87;25352;-78
2021/04/27 03:49:52;;;;;;;30.88;18.23;;;;;;;0.20;72.79;100546.91;1610152;86;25740;-77
2021/04/27 03:52:18;;;;;;;33.20;18.20;;;;;;;0.21;72.91;100538.73;1637590;86;25884;-77
2021/04/27 03:54:44;;;;;;;30.80;17.35;;;;;;;0.12;73.12;100524.70;1616906;86;25375;-77
2021/04/27 03:57:10;;;;;;;24.15;14.85;;;;;;;0.29;73.22;100556.26;1621966;86;25962;-78
2021/04/27 03:59:47;;;;;;;25.48;15.55;;;;;;;0.29;73.22;100556.26;1638737;85;25768;-78
2021/04/27 04:02:14;;;;;;;27.13;16.25;;;;;;;0.27;73.19;100559.37;1599342;87;25438;-79
2021/04/27 04:04:40;;;;;;;24.87;15.75;;;;;;;0.28;73.28;100557.19;1611711;87;25903;-79
2021/04/27 04:07:25;;;;;;;25.43;15.38;;;;;;;0.34;73.52;100560.66;1671405;84;26396;-79
2021/04/27 04:10:13;;;;;;;24.47;14.60;;;;;;;0.30;73.34;100556.18;1661611;84;25766;-79
2021/04/27 04:12:41;;;;;;;25.27;15.25;;;;;;;0.30;73.28;100560.47;1668176;85;35449;-79
2021/04/27 04:15:15;;;;;;;24.23;15.53;;;;;;;0.30;73.28;100560.47;1669946;84;25723;-79
2021/04/27 04:17:44;;;;;;;31.23;18.95;;;;;;;0.33;73.57;100565.45;1659680;85;25763;-80
2021/04/27 04:20:15;;;;;;;32.33;19.85;;;;;;;0.19;73.72;100536.70;1667485;85;25691;-79
2021/04/27 04:22:43;;;;;;;32.98;21.68;;;;;;;0.39;73.80;100544.50;1659755;85;25939;-79
2021/04/27 04:25:13;;;;;;;34.33;22.90;;;;;;;0.39;73.80;100544.50;1631346;86;25759;-79
2021/04/27 04:27:41;;;;;;;34.10;22.80;;;;;;;0.53;73.67;100557.78;1588254;86;45668;-79
2021/04/27 04:30:14;;;;;;;36.68;22.67;;;;;;;0.60;73.58;100568.03;1634135;86;25936;-77
2021/04/27 04:32:40;;;;;;;41.70;23.30;;;;;;;0.60;73.59;100570.60;1631903;86;25716;-79
2021/04/27 04:35:27;;;;;;;36.90;21.00;;;;;;;0.68;73.72;100573.98;1632629;86;25875;-78
2021/04/27 04:38:14;;;;;;;33.90;21.37;;;;;;;0.74;73.70;100575.73;1632126;86;25840;-78
2021/04/27 04:40:59;;;;;;;31.60;20.27;;;;;;;0.80;73.74;100569.37;1632040;86;25823;-78
2021/04/27 04:43:31;;;;;;;33.55;20.75;;;;;;;0.84;73.74;100562.63;1633533;86;25883;-79
2021/04/27 04:46:16;;;;;;;41.23;20.75;;;;;;;0.81;74.18;100556.86;1643650;85;25782;-79
2021/04/27 04:48:44;;;;;;;32.13;19.62;;;;;;;0.91;73.95;100561.79;1641236;84;26001;-79
2021/04/27 04:51:12;;;;;;;35.40;21.17;;;;;;;1.09;74.04;100571.34;1656373;84;25720;-79
2021/04/27 04:53:45;;;;;;;35.90;20.12;;;;;;;1.18;73.92;100577.67;1655586;84;25810;-76
2021/04/27 04:56:11;;;;;;;35.05;19.10;;;;;;;1.26;73.91;100572.86;1668524;85;25341;-76
2021/04/27 04:58:38;;;;;;;33.48;20.20;;;;;;;1.33;74.30;100571.05;1660241;85;26035;-76
2021/04/27 05:01:05;;;;;;;34.88;18.37;;;;;;;1.35;73.86;100572.71;1668978;84;25689;-78
2021/04/27 05:03:39;;;;;;;35.15;18.95;;;;;;;1.44;73.87;100565.66;1659245;85;25347;-77
2021/04/27 05:06:25;;;;;;;34.70;21.90;;;;;;;1.59;74.02;100568.52;1668206;85;25694;-78
2021/04/27 05:09:04;;;;;;;41.95;22.22;;;;;;;1.70;73.58;100567.80;1593200;88;25841;-79
2021/04/27 05:11:49;;;;;;;33.50;21.37;;;;;;;1.82;73.54;100566.14;1593926;88;26028;-78
2021/04/27 05:14:25;;;;;;;29.10;18.30;;;;;;;1.94;73.37;100563.57;1580077;88;25944;-77
2021/04/27 05:16:52;;;;;;;29.87;17.35;;;;;;;2.05;73.18;100565.41;1590860;88;25784;-77
2021/04/27 05:19:19;;;;;;;30.25;17.67;;;;;;;2.14;73.00;100568.64;1579220;87;26086;-79
2021/04/27 05:21:45;;;;;;;27.80;18.05;;;;;;;2.21;72.87;100569.06;1563311;90;25916;-77
2021/04/27 05:24:12;;;;;;;27.13;16.65;;;;;;;2.15;72.98;100545.78;1563126;90;25948;-78
2021/04/27 05:26:38;;;;;;;22.93;15.13;;;;;;;2.46;72.80;100573.33;1560818;90;25860;-77
2021/04/27 05:29:04;;;;;;;26.07;15.43;;;;;;;2.57;72.66;100572.11;1580355;89;25639;-78
2021/04/27 05:31:30;;;;;;;22.07;15.03;;;;;;;2.69;72.55;100572.98;1601258;88;28326;-78
2021/04/27 05:33:56;;;;;;;27.73;15.57;;;;;;;2.77;72.33;100571.16;1592528;88;25931;-76
2021/04/27 05:36:21;;;;;;;22.55;13.55;;;;;;;2.87;72.11;100574.27;1593071;88;25784;-76
2021/04/27 05:38:47;;;;;;;21.90;13.63;;;;;;;2.97;71.68;100579.57;1592286;88;26544;-75
2021/04/27 05:41:13;;;;;;;22.47;13.97;;;;;;;3.04;71.51;100574.33;1591924;88;25434;-74
2021/04/27 05:43:39;;;;;;;22.45;12.80;;;;;;;3.11;71.53;100581.19;1591838;88;26420;-75
2021/04/27 05:46:05;;;;;;;21.55;12.65;;;;;;;3.23;71.26;100584.14;1637377;84;26236;-74
2021/04/27 05:48:31;;;;;;;16.07;10.53;;;;;;;3.35;70.99;100585.00;1660548;84;25599;-74
2021/04/27 05:50:56;;;;;;;15.37;10.57;;;;;;;3.46;70.91;100584.20;1643679;85;26134;-75
2021/04/27 05:53:22;;;;;;;17.60;9.13;;;;;;;3.54;70.68;100582.70;1643467;85;25989;-76
2021/04/27 05:55:49;;;;;;;17.17;10.60;;;;;;;3.63;70.27;100586.37;1670866;84;25914;-74
2021/04/27 05:58:14;;;;;;;20.82;11.55;;;;;;;3.71;70.07;100582.75;1659003;84;25365;-75
2021/04/27 06:00:40;;;;;;;17.37;11.40;;;;;;;3.82;70.08;100583.69;1653324;84;25871;-74
2021/04/27 06:03:06;;;;;;;22.77;10.63;;;;;;;3.93;70.03;100585.02;1654142;84;25800;-75
2021/04/27 06:05:32;;;;;;;24.53;12.17;;;;;;;4.01;69.71;100585.25;1659291;84;25505;-75
2021/04/27 06:07:58;;;;;;;22.57;11.23;;;;;;;4.05;69.49;100585.83;1669532;84;25788;-75
2021/04/27 06:10:24;;;;;;;15.27;9.70;;;;;;;4.13;69.28;100587.36;1660889;84;25422;-75
2021/04/27 06:12:49;;;;;;;17.53;9.47;;;;;;;4.23;68.89;100591.71;1668206;85;25920;-75
2021/04/27 06:15:17;;;;;;;17.67;8.03;;;;;;;4.34;68.66;100593.47;1660450;84;25817;-74
2021/04/27 06:17:44;;;;;;;11.78;6.55;;;;;;;4.45;68.24;100588.76;1668226;84;25779;-75
2021/04/27 06:20:12;;;;;;;9.00;5.53;;;;;;;4.52;67.42;100591.67;1669504;84;25795;-75
2021/04/27 06:22:38;;;;;;;9.00;5.60;;;;;;;4.56;67.04;100589.22;1669875;84;25300;-75
2021/04/27 06:25:07;;;;;;;9.38;5.70;;;;;;;4.62;66.78;100592.13;1666280;85;25373;-74
2021/04/27 06:27:33;;;;;;;11.10;6.85;;;;;;;4.71;66.62;100581.52;1662539;84;25633;-75
2021/04/27 06:30:00;;;;;;;13.43;8.43;;;;;;;4.83;66.56;100591.39;1643275;85;26610;-75
2021/04/27 06:32:28;;;;;;;16.07;8.63;;;;;;;4.85;66.31;100586.89;1643977;85;25899;-75
2021/04/27 06:34:54;;;;;;;9.50;5.95;;;;;;;4.89;66.14;100588.30;1643397;85;25538;-75
2021/04/27 06:37:21;;;;;;;13.30;6.08;;;;;;;4.93;65.26;100583.21;1670808;84;25714;-74
2021/04/27 06:39:47;;;;;;;8.88;5.85;;;;;;;4.96;64.99;100586.84;1669495;84;25731;-75
2021/04/27 06:42:14;;;;;;;8.50;5.30;;;;;;;5.00;64.69;100586.15;1670219;84;25822;-75
2021/04/27 06:44:39;;;;;;;9.73;5.72;;;;;;;5.01;63.56;100595.08;1625150;86;26073;-75
2021/04/27 06:47:07;;;;;;;8.97;5.17;;;;;;;4.97;63.46;100593.69;1625562;85;27245;-75
2021/04/27 06:49:34;;;;;;;8.40;4.67;;;;;;;5.03;63.35;100594.97;1670879;84;25415;-73
2021/04/27 06:52:00;;;;;;;7.53;4.67;;;;;;;5.03;61.81;100588.48;1659346;84;25761;-75
2021/04/27 06:54:26;;;;;;;9.90;5.05;;;;;;;5.04;61.65;100591.42;1641028;84;26088;-72
2021/04/27 06:56:52;;;;;;;7.87;4.62;;;;;;;5.11;62.14;100593.39;1654551;85;25702;-72
2021/04/27 06:59:20;;;;;;;9.47;5.30;;;;;;;5.18;60.60;100591.12;1662758;84;26254;-76
2021/04/27 07:01:48;;;;;;;8.93;4.62;;;;;;;5.22;59.54;100590.42;1619828;85;25999;-75
2021/04/27 07:04:14;;;;;;;8.70;4.92;;;;;;;5.24;59.64;100591.12;1670163;84;25836;-73
2021/04/27 07:06:40;;;;;;;7.45;4.20;;;;;;;5.29;59.66;100587.20;1665445;84;25434;-74
2021/04/27 07:09:06;;;;;;;8.27;4.60;;;;;;;5.41;60.16;100594.44;1645345;85;25828;-74
2021/04/27 07:11:33;;;;;;;10.20;5.00;;;;;;;5.49;57.69;100595.94;1652513;85;28269;-73
2021/04/27 07:13:59;;;;;;;8.33;3.70;;;;;;;5.46;57.62;100591.00;1668865;85;25888;-72
2021/04/27 07:16:25;;;;;;;11.48;3.70;;;;;;;5.49;57.57;100589.93;1669838;85;25836;-72
2021/04/27 07:18:51;;;;;;;3.42;2.45;;;;;;;5.61;56.13;100593.27;1659857;85;25655;-75
2021/04/27 07:21:20;;;;;;;5.33;2.67;;;;;;;5.72;56.77;100590.61;1670402;85;25862;-74
2021/04/27 07:23:46;;;;;;;4.90;2.80;;;;;;;5.78;55.53;100591.38;1669085;84;25741;-73
2021/04/27 07:26:12;;;;;;;4.83;2.77;;;;;;;5.75;54.60;100592.45;1669669;85;25837;-73
2021/04/27 07:28:38;;;;;;;4.35;2.37;;;;;;;5.78;54.41;100588.79;1660119;85;25731;-73
2021/04/27 07:31:04;;;;;;;5.77;2.47;;;;;;;5.83;51.64;100587.12;1659211;85;25914;-74
2021/04/27 07:33:30;;;;;;;5.33;2.33;;;;;;;5.84;52.12;100589.59;1666490;85;25406;-73
2021/04/27 07:35:56;;;;;;;5.90;2.60;;;;;;;5.91;49.91;100595.89;1660185;84;29134;-73
2021/04/27 07:38:23;;;;;;;3.67;2.37;;;;;;;5.99;52.28;100601.29;1612873;87;25881;-75
2021/04/27 07:40:49;;;;;;;3.20;2.02;;;;;;;6.11;53.13;100598.16;1654158;86;25741;-73
2021/04/27 07:43:16;;;;;;;4.20;2.35;;;;;;;6.26;52.26;100597.80;1644114;85;25865;-73
2021/04/27 07:45:42;;;;;;;5.40;1.90;;;;;;;6.29;48.03;100599.64;1653186;85;25773;-72
2021/04/27 07:48:12;;;;;;;7.25;2.35;;;;;;;6.25;49.02;100597.43;1669478;84;25839;-73
2021/04/27 07:50:38;;;;;;;3.15;2.00;;;;;;;6.30;51.04;100595.27;1653788;85;25516;-73
2021/04/27 07:53:06;;;;;;;4.12;2.30;;;;;;;6.30;49.02;100597.86;1666502;85;25627;-72
2021/04/27 07:55:32;;;;;;;3.58;2.00;;;;;;;6.32;49.74;100598.08;1667572;85;25885;-74
2021/04/27 07:57:58;;;;;;;2.40;2.17;;;;;;;6.31;47.96;100606.02;1667903;84;25748;-75
2021/04/27 08:00:25;;;;;;;4.92;2.08;;;;;;;6.25;47.25;100598.73;1679102;84;25693;-71
2021/04/27 08:02:51;;;;;;;3.30;1.92;;;;;;;6.28;47.76;100601.09;1654239;85;25922;-74
2021/04/27 08:05:20;;;;;;;3.15;1.60;;;;;;;6.34;48.88;100600.07;1677404;84;26731;-76
2021/04/27 08:07:50;;;;;;;3.00;1.92;;;;;;;6.44;47.32;100600.94;1678221;84;25835;-73
2021/04/27 08:10:16;;;;;;;3.27;2.05;;;;;;;6.44;47.88;100599.63;1672067;84;25386;-75
2021/04/27 08:12:46;;;;;;;5.03;2.30;;;;;;;6.60;49.05;100600.44;1627441;85;25423;-76
2021/04/27 08:15:16;;;;;;;3.10;2.40;;;;;;;6.77;49.20;100601.55;1676475;83;25766;-75
2021/04/27 08:17:42;;;;;;;6.22;3.08;;;;;;;6.95;49.29;100596.98;1670015;84;25978;-75
2021/04/27 08:20:12;;;;;;;10.53;2.77;;;;;;;7.11;49.30;100595.97;1668624;84;25912;-74
2021/04/27 08:22:41;;;;;;;6.42;3.98;;;;;;;7.26;49.12;100592.01;1660310;85;34938;-74
2021/04/27 08:25:08;;;;;;;3.77;1.70;;;;;;;7.38;47.95;100596.57;1654845;85;25828;-75
2021/04/27 08:27:36;;;;;;;3.47;1.80;;;;;;;7.34;47.11;100599.94;1633814;85;25787;-74
2021/04/27 08:30:04;;;;;;;5.00;1.95;;;;;;;7.36;45.73;100596.37;1660606;84;26014;-75
2021/04/27 08:32:30;;;;;;;3.98;2.00;;;;;;;7.27;45.98;100600.63;1670792;84;25946;-73
2021/04/27 08:34:57;;;;;;;7.80;2.20;;;;;;;7.19;46.67;100592.69;1670769;85;26082;-75
2021/04/27 08:37:23;;;;;;;4.92;2.37;;;;;;;7.18;46.75;100587.97;1656499;85;25529;-72
2021/04/27 08:39:49;;;;;;;3.75;1.65;;;;;;;7.26;47.18;100594.61;1668404;85;25423;-74
2021/04/27 08:42:16;;;;;;;3.70;2.50;;;;;;;7.25;45.50;100589.53;1659111;84;25900;-73
2021/04/27 08:44:42;;;;;;;4.70;2.05;;;;;;;7.30;46.33;100593.36;1668705;85;25702;-75
2021/04/27 08:47:09;;;;;;;4.12;2.05;;;;;;;7.39;45.63;100590.89;1643129;84;25849;-74
2021/04/27 08:49:37;;;;;;;5.17;2.30;;;;;;;7.31;43.90;100592.87;1631955;86;25883;-73
2021/04/27 08:52:04;;;;;;;2.12;1.80;;;;;;;7.24;43.69;100587.41;1644050;85;25785;-76
2021/04/27 08:54:30;;;;;;;2.42;1.77;;;;;;;7.13;44.04;100590.16;1618282;85;26004;-74
2021/04/27 08:56:56;;;;;;;1.97;1.63;;;;;;;7.11;45.33;100590.28;1670496;85;25770;-75
2021/04/27 08:59:22;;;;;;;3.62;2.22;;;;;;;7.22;43.89;100595.83;1658932;84;25910;-75
2021/04/27 09:01:48;;;;;;;2.72;1.85;;;;;;;7.28;44.90;100594.45;1659808;85;25762;-75
2021/04/27 09:04:38;;;;;;;2.08;1.70;;;;;;;7.38;44.06;100597.06;1667418;84;25730;-75
2021/04/27 09:07:10;;;;;;;4.28;1.87;;;;;;;7.37;43.11;100597.55;1667804;85;25652;-74
2021/04/27 09:09:47;;;;;;;5.00;1.70;;;;;;;7.42;44.73;100591.91;1665972;85;25327;-75
2021/04/27 09:12:15;;;;;;;2.75;1.72;;;;;;;7.52;42.59;100597.44;1661025;84;25754;-75
2021/04/27 09:14:42;;;;;;;4.10;1.90;;;;;;;7.59;44.71;100593.00;1640039;86;25395;-77
2021/04/27 09:17:11;;;;;;;2.30;1.90;;;;;;;7.74;44.64;100586.37;1631469;84;25467;-75
2021/04/27 09:19:53;;;;;;;3.70;2.10;;;;;;;7.97;43.44;100591.59;1660782;84;25965;-76
2021/04/27 09:22:24;;;;;;;2.95;2.10;;;;;;;7.93;42.24;100591.52;1668816;84;25656;-76
2021/04/27 09:25:00;;;;;;;3.20;2.20;;;;;;;7.91;43.59;100593.92;1633278;86;25787;-76
2021/04/27 09:27:36;;;;;;;6.12;2.85;;;;;;;7.91;42.90;100592.17;1654487;85;25747;-76
2021/04/27 09:30:20;;;;;;;3.62;2.17;;;;;;;7.95;43.84;100591.39;1643554;85;25386;-75
2021/04/27 09:33:07;;;;;;;4.60;2.83;;;;;;;8.16;44.23;100589.40;1667716;84;25715;-77
2021/04/27 09:35:43;;;;;;;2.80;2.00;;;;;;;8.31;44.38;100577.20;1659194;84;25642;-78
2021/04/27 09:38:19;;;;;;;3.70;2.00;;;;;;;8.59;45.00;100578.86;1660173;84;25358;-76
2021/04/27 09:40:59;;;;;;;3.42;2.15;;;;;;;8.68;44.10;100572.44;1658400;84;25537;-76
2021/04/27 09:43:34;;;;;;;3.40;2.22;;;;;;;8.71;43.07;100575.56;1643981;85;25354;-75
2021/04/27 09:46:03;;;;;;;6.10;2.72;;;;;;;8.71;42.71;100575.56;1670124;84;26130;-74
2021/04/27 09:48:35;;;;;;;4.40;2.20;;;;;;;8.72;41.98;100577.19;1659864;84;25894;-75
2021/04/27 09:51:21;;;;;;;3.90;2.22;;;;;;;8.74;42.66;100571.84;1668076;84;25343;-74
2021/04/27 09:53:55;;;;;;;3.67;2.10;;;;;;;8.82;43.27;100566.70;1636346;86;25993;-74
2021/04/27 09:56:39;;;;;;;4.95;2.10;;;;;;;8.95;41.63;100573.67;1663488;84;25332;-74
2021/04/27 09:59:15;;;;;;;2.33;2.10;;;;;;;8.74;41.69;100580.96;1632731;86;25944;-74
2021/04/27 10:01:49;;;;;;;12.80;2.60;;;;;;;8.54;42.00;100577.18;1654309;85;25799;-75
2021/04/27 10:04:15;;;;;;;4.28;2.05;;;;;;;8.47;42.29;100578.72;1645614;85;26800;-75
2021/04/27 10:06:43;;;;;;;3.72;2.05;;;;;;;8.46;42.56;100571.88;1575829;85;25861;-75
2021/04/27 10:09:09;;;;;;;3.83;2.17;;;;;;;8.51;42.88;100573.56;1662454;84;25362;-75
2021/04/27 10:11:36;;;;;;;2.65;2.05;;;;;;;8.59;42.75;100576.27;1644887;85;26392;-76
2021/04/27 10:14:06;;;;;;;3.77;2.12;;;;;;;8.50;42.06;100571.91;1645176;85;25367;-76
2021/04/27 10:16:34;;;;;;;3.83;2.42;;;;;;;8.51;43.03;100571.42;1670336;85;25726;-74
2021/04/27 10:19:03;;;;;;;2.80;1.87;;;;;;;8.66;43.37;100569.97;1669767;84;26522;-74
2021/04/27 10:21:30;;;;;;;4.25;2.12;;;;;;;8.65;42.30;100567.03;1668424;84;25369;-74
2021/04/27 10:24:00;;;;;;;5.37;2.45;;;;;;;8.63;41.49;100565.87;1661007;84;26515;-74
2021/04/27 10:26:31;;;;;;;3.55;2.62;;;;;;;8.52;41.96;100571.28;1669960;84;25584;-75
2021/04/27 10:29:08;;;;;;;4.37;2.52;;;;;;;8.36;41.44;100576.28;1666396;84;25419;-75
2021/04/27 10:31:38;;;;;;;6.17;2.60;;;;;;;8.31;42.71;100575.89;1668648;85;25795;-75
2021/04/27 10:34:11;;;;;;;;;;;;;;;8.32;42.08;100573.16;1637823;86;25744;-75
2021/04/27 10:36:51;;;;;;;3.55;2.20;;;;;;;8.27;42.42;100570.66;1654010;85;25821;-74
2021/04/27 10:39:36;;;;;;;3.60;2.47;;;;;;;8.20;41.74;100573.81;1631554;86;25393;-76
2021/04/27 10:42:24;;;;;;;9.48;3.17;;;;;;;8.11;41.91;100574.69;1653466;86;25359;-75
2021/04/27 10:45:06;;;;;;;3.87;2.95;;;;;;;8.07;43.10;100569.90;1645063;85;25675;-76
2021/04/27 10:47:42;;;;;;;3.33;2.15;;;;;;;8.26;43.86;100559.39;1667230;84;25785;-76
2021/04/27 10:50:18;;;;;;;3.50;2.35;;;;;;;8.43;42.90;100557.36;1631166;86;25704;-75
2021/04/27 10:52:44;;;;;;;2.52;2.20;;;;;;;8.56;42.66;100554.87;1625225;85;25490;-78
2021/04/27 10:55:31;;;;;;;3.77;2.40;;;;;;;8.68;41.33;100551.59;1630588;86;25796;-80
2021/04/27 10:58:03;;;;;;;3.08;2.10;;;;;;;8.65;40.48;100550.09;1683782;83;26636;-75
2021/04/27 11:00:38;;;;;;;4.80;2.30;;;;;;;8.57;41.34;100556.53;1632654;86;25498;-80
2021/04/27 11:03:28;;;;;;;3.33;2.15;;;;;;;8.58;41.26;100545.94;1655807;85;25870;-75
2021/04/27 11:06:01;;;;;;;4.17;2.37;;;;;;;8.61;39.73;100545.64;1644772;85;25452;-76
2021/04/27 11:08:52;;;;;;;7.70;3.08;;;;;;;8.57;40.77;100538.29;1623713;86;26523;-75
2021/04/27 11:11:31;;;;;;;5.40;2.30;;;;;;;8.54;41.29;100542.01;1661629;84;25797;-73
2021/04/27 11:14:21;;;;;;;6.75;2.47;;;;;;;8.59;39.74;100541.55;1644313;85;25608;-74
2021/04/27 11:16:54;;;;;;;6.53;2.90;;;;;;;8.58;41.48;100538.62;1644129;85;25658;-73
2021/04/27 11:19:29;;;;;;;5.47;2.12;;;;;;;8.58;40.79;100540.73;1644607;85;25752;-75
2021/04/27 11:22:17;;;;;;;3.58;2.00;;;;;;;8.56;41.30;100540.54;1643820;85;26136;-76
2021/04/27 11:24:44;;;;;;;2.87;2.20;;;;;;;8.60;41.65;100537.50;1669430;84;25371;-75
2021/04/27 11:27:26;;;;;;;4.10;2.37;;;;;;;8.67;41.45;100544.23;1666739;84;25328;-74
2021/04/27 11:30:00;;;;;;;3.35;2.00;;;;;;;8.70;41.47;100543.13;1670402;84;26476;-75
2021/04/27 11:32:31;;;;;;;3.30;1.92;;;;;;;8.73;41.01;100539.75;1670439;84;25931;-77
2021/04/27 11:35:09;;;;;;;9.90;2.70;;;;;;;8.78;41.03;100531.47;1668773;84;25730;-76
2021/04/27 11:37:59;;;;;;;3.83;2.25;;;;;;;8.90;41.33;100532.90;1657140;85;25405;-75